sensor_id;sensor_type;location;lat;lon;timestamp;P1;durP1;ratioP1;P2;durP2;ratioP2
52188;SDS011;38162;45.926;13.608;2023-11-19T00:02:18;5.17;;;3.50;;
52188;SDS011;38162;45.926;13.608;2023-11-19T00:04:44;4.70;;;3.10;;
52188;SDS011;38162;45.926;13.608;2023-11-19T00:07:10;6.57;;;3.00;;
52188;SDS011;38162;45.926;13.608;2023-11-19T00:09:38;5.97;;;3.23;;
52188;SDS011;38162;45.926;13.608;2023-11-19T00:12:04;7.80;;;3.23;;
52188;SDS011;38162;45.926;13.608;2023-11-19T00:14:31;6.63;;;3.43;;
52188;SDS011;38162;45.926;13.608;2023-11-19T00:16:57;7.63;;;3.23;;
52188;SDS011;38162;45.926;13.608;2023-11-19T00:19:23;5.37;;;3.20;;
52188;SDS011;38162;45.926;13.608;2023-11-19T00:21:49;5.77;;;3.73;;
52188;SDS011;38162;45.926;13.608;2023-11-19T00:24:15;7.20;;;3.77;;
52188;SDS011;38162;45.926;13.608;2023-11-19T00:26:42;5.87;;;3.13;;
52188;SDS011;38162;45.926;13.608;2023-11-19T00:29:08;9.10;;;3.20;;
52188;SDS011;38162;45.926;13.608;2023-11-19T00:31:33;5.53;;;3.00;;
52188;SDS011;38162;45.926;13.608;2023-11-19T00:34:00;7.80;;;2.70;;
52188;SDS011;38162;45.926;13.608;2023-11-19T00:36:26;5.73;;;2.80;;
52188;SDS011;38162;45.926;13.608;2023-11-19T00:38:53;5.27;;;3.07;;
52188;SDS011;38162;45.926;13.608;2023-11-19T00:41:19;5.43;;;2.97;;
52188;SDS011;38162;45.926;13.608;2023-11-19T00:43:45;8.83;;;3.80;;
52188;SDS011;38162;45.926;13.608;2023-11-19T00:46:11;5.63;;;3.27;;
52188;SDS011;38162;45.926;13.608;2023-11-19T00:48:37;6.73;;;2.60;;
52188;SDS011;38162;45.926;13.608;2023-11-19T00:51:03;4.60;;;2.80;;
52188;SDS011;38162;45.926;13.608;2023-11-19T00:53:29;5.70;;;2.80;;
52188;SDS011;38162;45.926;13.608;2023-11-19T00:55:55;5.43;;;2.83;;
52188;SDS011;38162;45.926;13.608;2023-11-19T00:58:22;5.53;;;3.40;;
52188;SDS011;38162;45.926;13.608;2023-11-19T01:00:47;3.97;;;2.67;;
52188;SDS011;38162;45.926;13.608;2023-11-19T01:03:13;5.00;;;2.80;;
52188;SDS011;38162;45.926;13.608;2023-11-19T01:05:41;5.63;;;3.07;;
52188;SDS011;38162;45.926;13.608;2023-11-19T01:08:07;4.43;;;2.83;;
52188;SDS011;38162;45.926;13.608;2023-11-19T01:10:36;4.97;;;2.97;;
52188;SDS011;38162;45.926;13.608;2023-11-19T01:13:02;4.70;;;2.83;;
52188;SDS011;38162;45.926;13.608;2023-11-19T01:15:30;4.03;;;2.80;;
52188;SDS011;38162;45.926;13.608;2023-11-19T01:17:57;6.27;;;2.80;;
52188;SDS011;38162;45.926;13.608;2023-11-19T01:20:22;5.33;;;2.50;;
52188;SDS011;38162;45.926;13.608;2023-11-19T01:22:48;7.30;;;3.97;;
52188;SDS011;38162;45.926;13.608;2023-11-19T01:25:14;6.53;;;4.53;;
52188;SDS011;38162;45.926;13.608;2023-11-19T01:27:40;7.57;;;4.73;;
52188;SDS011;38162;45.926;13.608;2023-11-19T01:30:06;9.00;;;5.00;;
52188;SDS011;38162;45.926;13.608;2023-11-19T01:32:36;7.43;;;4.83;;
52188;SDS011;38162;45.926;13.608;2023-11-19T01:35:02;9.20;;;5.27;;
52188;SDS011;38162;45.926;13.608;2023-11-19T01:37:29;9.73;;;5.20;;
52188;SDS011;38162;45.926;13.608;2023-11-19T01:39:56;7.47;;;5.20;;
52188;SDS011;38162;45.926;13.608;2023-11-19T01:42:22;8.63;;;5.37;;
52188;SDS011;38162;45.926;13.608;2023-11-19T01:44:59;7.63;;;4.80;;
52188;SDS011;38162;45.926;13.608;2023-11-19T01:47:29;6.93;;;4.90;;
52188;SDS011;38162;45.926;13.608;2023-11-19T01:49:56;10.13;;;4.73;;
52188;SDS011;38162;45.926;13.608;2023-11-19T01:52:22;7.93;;;5.20;;
52188;SDS011;38162;45.926;13.608;2023-11-19T01:54:49;10.17;;;5.33;;
52188;SDS011;38162;45.926;13.608;2023-11-19T01:57:17;7.97;;;4.80;;
52188;SDS011;38162;45.926;13.608;2023-11-19T01:59:43;7.00;;;4.53;;
52188;SDS011;38162;45.926;13.608;2023-11-19T02:02:09;8.30;;;4.30;;
52188;SDS011;38162;45.926;13.608;2023-11-19T02:04:35;6.80;;;4.30;;
52188;SDS011;38162;45.926;13.608;2023-11-19T02:07:01;6.70;;;3.73;;
52188;SDS011;38162;45.926;13.608;2023-11-19T02:09:27;5.47;;;3.37;;
52188;SDS011;38162;45.926;13.608;2023-11-19T02:11:53;4.77;;;2.83;;
52188;SDS011;38162;45.926;13.608;2023-11-19T02:14:22;5.97;;;2.80;;
52188;SDS011;38162;45.926;13.608;2023-11-19T02:16:50;5.30;;;2.70;;
52188;SDS011;38162;45.926;13.608;2023-11-19T02:19:19;6.33;;;2.97;;
52188;SDS011;38162;45.926;13.608;2023-11-19T02:21:45;4.60;;;2.60;;
52188;SDS011;38162;45.926;13.608;2023-11-19T02:24:11;6.70;;;2.70;;
52188;SDS011;38162;45.926;13.608;2023-11-19T02:26:39;6.17;;;3.20;;
52188;SDS011;38162;45.926;13.608;2023-11-19T02:29:10;7.23;;;3.70;;
52188;SDS011;38162;45.926;13.608;2023-11-19T02:31:38;10.07;;;3.67;;
52188;SDS011;38162;45.926;13.608;2023-11-19T02:34:04;5.97;;;3.57;;
52188;SDS011;38162;45.926;13.608;2023-11-19T02:36:30;7.20;;;3.77;;
52188;SDS011;38162;45.926;13.608;2023-11-19T02:38:57;8.13;;;4.37;;
52188;SDS011;38162;45.926;13.608;2023-11-19T02:41:23;7.37;;;3.63;;
52188;SDS011;38162;45.926;13.608;2023-11-19T02:43:49;7.93;;;3.97;;
52188;SDS011;38162;45.926;13.608;2023-11-19T02:46:15;7.40;;;3.83;;
52188;SDS011;38162;45.926;13.608;2023-11-19T02:48:42;9.07;;;4.27;;
52188;SDS011;38162;45.926;13.608;2023-11-19T02:51:09;7.70;;;4.17;;
52188;SDS011;38162;45.926;13.608;2023-11-19T02:53:35;6.87;;;4.30;;
52188;SDS011;38162;45.926;13.608;2023-11-19T02:56:05;7.77;;;4.17;;
52188;SDS011;38162;45.926;13.608;2023-11-19T02:58:37;11.20;;;4.75;;
52188;SDS011;38162;45.926;13.608;2023-11-19T03:01:04;6.40;;;3.87;;
52188;SDS011;38162;45.926;13.608;2023-11-19T03:03:38;8.97;;;4.20;;
52188;SDS011;38162;45.926;13.608;2023-11-19T03:06:05;5.03;;;3.60;;
52188;SDS011;38162;45.926;13.608;2023-11-19T03:08:34;6.57;;;3.77;;
52188;SDS011;38162;45.926;13.608;2023-11-19T03:11:01;7.93;;;4.37;;
52188;SDS011;38162;45.926;13.608;2023-11-19T03:13:27;6.27;;;4.10;;
52188;SDS011;38162;45.926;13.608;2023-11-19T03:15:52;8.47;;;4.00;;
52188;SDS011;38162;45.926;13.608;2023-11-19T03:18:21;5.23;;;3.63;;
52188;SDS011;38162;45.926;13.608;2023-11-19T03:20:47;6.27;;;3.97;;
52188;SDS011;38162;45.926;13.608;2023-11-19T03:23:13;10.20;;;3.63;;
52188;SDS011;38162;45.926;13.608;2023-11-19T03:25:38;6.77;;;4.03;;
52188;SDS011;38162;45.926;13.608;2023-11-19T03:28:04;8.53;;;4.00;;
52188;SDS011;38162;45.926;13.608;2023-11-19T03:30:30;5.77;;;3.80;;
52188;SDS011;38162;45.926;13.608;2023-11-19T03:32:56;7.47;;;4.57;;
52188;SDS011;38162;45.926;13.608;2023-11-19T03:35:23;5.90;;;3.73;;
52188;SDS011;38162;45.926;13.608;2023-11-19T03:37:49;6.53;;;4.00;;
52188;SDS011;38162;45.926;13.608;2023-11-19T03:40:16;7.90;;;4.00;;
52188;SDS011;38162;45.926;13.608;2023-11-19T03:42:44;6.00;;;3.83;;
52188;SDS011;38162;45.926;13.608;2023-11-19T03:45:13;6.70;;;4.17;;
52188;SDS011;38162;45.926;13.608;2023-11-19T03:47:40;7.10;;;3.93;;
52188;SDS011;38162;45.926;13.608;2023-11-19T03:50:07;8.07;;;3.93;;
52188;SDS011;38162;45.926;13.608;2023-11-19T03:52:34;9.07;;;4.13;;
52188;SDS011;38162;45.926;13.608;2023-11-19T03:55:00;8.83;;;3.70;;
52188;SDS011;38162;45.926;13.608;2023-11-19T03:57:27;6.93;;;4.23;;
52188;SDS011;38162;45.926;13.608;2023-11-19T03:59:53;7.63;;;3.80;;
52188;SDS011;38162;45.926;13.608;2023-11-19T04:02:20;7.57;;;3.90;;
52188;SDS011;38162;45.926;13.608;2023-11-19T04:04:46;7.20;;;4.20;;
52188;SDS011;38162;45.926;13.608;2023-11-19T04:07:13;6.37;;;3.60;;
52188;SDS011;38162;45.926;13.608;2023-11-19T04:09:39;8.07;;;4.20;;
52188;SDS011;38162;45.926;13.608;2023-11-19T04:12:04;5.53;;;3.40;;
52188;SDS011;38162;45.926;13.608;2023-11-19T04:14:30;6.83;;;4.30;;
52188;SDS011;38162;45.926;13.608;2023-11-19T04:16:56;6.03;;;3.83;;
52188;SDS011;38162;45.926;13.608;2023-11-19T04:19:22;10.53;;;3.63;;
52188;SDS011;38162;45.926;13.608;2023-11-19T04:21:48;8.80;;;3.77;;
52188;SDS011;38162;45.926;13.608;2023-11-19T04:24:13;8.57;;;3.53;;
52188;SDS011;38162;45.926;13.608;2023-11-19T04:26:43;5.77;;;3.50;;
52188;SDS011;38162;45.926;13.608;2023-11-19T04:29:13;6.40;;;3.70;;
52188;SDS011;38162;45.926;13.608;2023-11-19T04:31:42;7.90;;;3.40;;
52188;SDS011;38162;45.926;13.608;2023-11-19T04:34:12;8.93;;;3.30;;
52188;SDS011;38162;45.926;13.608;2023-11-19T04:36:38;5.47;;;3.33;;
52188;SDS011;38162;45.926;13.608;2023-11-19T04:39:04;6.67;;;3.57;;
52188;SDS011;38162;45.926;13.608;2023-11-19T04:41:34;5.63;;;3.47;;
52188;SDS011;38162;45.926;13.608;2023-11-19T04:44:14;7.20;;;3.47;;
52188;SDS011;38162;45.926;13.608;2023-11-19T04:46:42;8.73;;;3.90;;
52188;SDS011;38162;45.926;13.608;2023-11-19T04:49:09;5.90;;;3.63;;
52188;SDS011;38162;45.926;13.608;2023-11-19T04:51:41;7.17;;;4.13;;
52188;SDS011;38162;45.926;13.608;2023-11-19T04:54:08;6.87;;;4.20;;
52188;SDS011;38162;45.926;13.608;2023-11-19T04:56:34;5.67;;;3.43;;
52188;SDS011;38162;45.926;13.608;2023-11-19T04:59:02;8.27;;;4.23;;
52188;SDS011;38162;45.926;13.608;2023-11-19T05:01:28;6.47;;;4.30;;
52188;SDS011;38162;45.926;13.608;2023-11-19T05:03:55;6.30;;;3.63;;
52188;SDS011;38162;45.926;13.608;2023-11-19T05:06:25;4.77;;;3.57;;
52188;SDS011;38162;45.926;13.608;2023-11-19T05:08:52;8.53;;;5.17;;
52188;SDS011;38162;45.926;13.608;2023-11-19T05:11:19;8.73;;;5.67;;
52188;SDS011;38162;45.926;13.608;2023-11-19T05:13:45;9.87;;;6.67;;
52188;SDS011;38162;45.926;13.608;2023-11-19T05:16:11;9.93;;;6.43;;
52188;SDS011;38162;45.926;13.608;2023-11-19T05:18:40;9.07;;;5.50;;
52188;SDS011;38162;45.926;13.608;2023-11-19T05:21:06;9.57;;;6.30;;
52188;SDS011;38162;45.926;13.608;2023-11-19T05:23:32;8.37;;;5.53;;
52188;SDS011;38162;45.926;13.608;2023-11-19T05:26:01;8.77;;;5.40;;
52188;SDS011;38162;45.926;13.608;2023-11-19T05:28:27;11.90;;;4.93;;
52188;SDS011;38162;45.926;13.608;2023-11-19T05:30:54;8.63;;;4.57;;
52188;SDS011;38162;45.926;13.608;2023-11-19T05:33:20;6.33;;;3.87;;
52188;SDS011;38162;45.926;13.608;2023-11-19T05:35:46;5.63;;;3.17;;
52188;SDS011;38162;45.926;13.608;2023-11-19T05:38:12;6.00;;;3.10;;
52188;SDS011;38162;45.926;13.608;2023-11-19T05:40:38;6.27;;;3.20;;
52188;SDS011;38162;45.926;13.608;2023-11-19T05:43:04;5.57;;;3.10;;
52188;SDS011;38162;45.926;13.608;2023-11-19T05:45:30;4.47;;;2.97;;
52188;SDS011;38162;45.926;13.608;2023-11-19T05:47:57;5.80;;;3.23;;
52188;SDS011;38162;45.926;13.608;2023-11-19T05:50:23;7.07;;;3.20;;
52188;SDS011;38162;45.926;13.608;2023-11-19T05:52:49;6.63;;;3.53;;
52188;SDS011;38162;45.926;13.608;2023-11-19T05:55:15;6.30;;;3.50;;
52188;SDS011;38162;45.926;13.608;2023-11-19T05:57:40;6.70;;;3.27;;
52188;SDS011;38162;45.926;13.608;2023-11-19T06:00:07;5.07;;;2.60;;
52188;SDS011;38162;45.926;13.608;2023-11-19T06:02:33;4.23;;;2.87;;
52188;SDS011;38162;45.926;13.608;2023-11-19T06:04:59;4.63;;;2.60;;
52188;SDS011;38162;45.926;13.608;2023-11-19T06:07:26;4.63;;;3.00;;
52188;SDS011;38162;45.926;13.608;2023-11-19T06:09:53;4.20;;;2.53;;
52188;SDS011;38162;45.926;13.608;2023-11-19T06:12:18;4.83;;;2.97;;
52188;SDS011;38162;45.926;13.608;2023-11-19T06:14:44;5.73;;;3.03;;
52188;SDS011;38162;45.926;13.608;2023-11-19T06:17:10;7.33;;;2.63;;
52188;SDS011;38162;45.926;13.608;2023-11-19T06:19:36;8.17;;;3.47;;
52188;SDS011;38162;45.926;13.608;2023-11-19T06:22:05;5.63;;;2.93;;
52188;SDS011;38162;45.926;13.608;2023-11-19T06:24:31;6.50;;;3.50;;
52188;SDS011;38162;45.926;13.608;2023-11-19T06:26:57;6.37;;;3.17;;
52188;SDS011;38162;45.926;13.608;2023-11-19T06:29:23;5.00;;;3.03;;
52188;SDS011;38162;45.926;13.608;2023-11-19T06:31:49;6.90;;;3.67;;
52188;SDS011;38162;45.926;13.608;2023-11-19T06:34:15;10.37;;;3.93;;
52188;SDS011;38162;45.926;13.608;2023-11-19T06:36:41;5.27;;;3.20;;
52188;SDS011;38162;45.926;13.608;2023-11-19T06:39:09;5.47;;;3.27;;
52188;SDS011;38162;45.926;13.608;2023-11-19T06:41:38;7.13;;;3.20;;
52188;SDS011;38162;45.926;13.608;2023-11-19T06:44:04;5.73;;;3.57;;
52188;SDS011;38162;45.926;13.608;2023-11-19T06:46:30;7.33;;;3.47;;
52188;SDS011;38162;45.926;13.608;2023-11-19T06:48:56;7.53;;;3.47;;
52188;SDS011;38162;45.926;13.608;2023-11-19T06:51:22;4.27;;;2.83;;
52188;SDS011;38162;45.926;13.608;2023-11-19T06:53:49;6.13;;;3.10;;
52188;SDS011;38162;45.926;13.608;2023-11-19T06:56:19;5.47;;;3.23;;
52188;SDS011;38162;45.926;13.608;2023-11-19T06:58:46;7.80;;;3.30;;
52188;SDS011;38162;45.926;13.608;2023-11-19T07:01:13;5.77;;;3.20;;
52188;SDS011;38162;45.926;13.608;2023-11-19T07:03:40;4.30;;;3.00;;
52188;SDS011;38162;45.926;13.608;2023-11-19T07:06:06;6.20;;;3.10;;
52188;SDS011;38162;45.926;13.608;2023-11-19T07:08:32;5.60;;;3.80;;
52188;SDS011;38162;45.926;13.608;2023-11-19T07:10:57;5.77;;;3.70;;
52188;SDS011;38162;45.926;13.608;2023-11-19T07:13:23;10.17;;;3.50;;
52188;SDS011;38162;45.926;13.608;2023-11-19T07:15:49;8.53;;;3.20;;
52188;SDS011;38162;45.926;13.608;2023-11-19T07:18:15;5.20;;;3.30;;
52188;SDS011;38162;45.926;13.608;2023-11-19T07:20:41;5.90;;;3.70;;
52188;SDS011;38162;45.926;13.608;2023-11-19T07:23:07;9.40;;;3.30;;
52188;SDS011;38162;45.926;13.608;2023-11-19T07:25:33;7.50;;;3.87;;
52188;SDS011;38162;45.926;13.608;2023-11-19T07:28:00;6.03;;;4.17;;
52188;SDS011;38162;45.926;13.608;2023-11-19T07:30:29;5.90;;;4.03;;
52188;SDS011;38162;45.926;13.608;2023-11-19T07:32:55;7.20;;;4.57;;
52188;SDS011;38162;45.926;13.608;2023-11-19T07:35:21;8.40;;;4.70;;
52188;SDS011;38162;45.926;13.608;2023-11-19T07:37:47;7.27;;;4.50;;
52188;SDS011;38162;45.926;13.608;2023-11-19T07:40:14;8.90;;;4.30;;
52188;SDS011;38162;45.926;13.608;2023-11-19T07:42:40;9.77;;;4.97;;
52188;SDS011;38162;45.926;13.608;2023-11-19T07:45:06;8.70;;;4.90;;
52188;SDS011;38162;45.926;13.608;2023-11-19T07:47:32;16.47;;;5.90;;
52188;SDS011;38162;45.926;13.608;2023-11-19T07:49:58;9.13;;;6.50;;
52188;SDS011;38162;45.926;13.608;2023-11-19T07:52:23;14.30;;;7.97;;
52188;SDS011;38162;45.926;13.608;2023-11-19T07:54:49;10.63;;;7.30;;
52188;SDS011;38162;45.926;13.608;2023-11-19T07:57:15;13.97;;;8.60;;
52188;SDS011;38162;45.926;13.608;2023-11-19T07:59:40;14.37;;;9.10;;
52188;SDS011;38162;45.926;13.608;2023-11-19T08:02:06;16.33;;;8.57;;
52188;SDS011;38162;45.926;13.608;2023-11-19T08:04:32;11.53;;;7.13;;
52188;SDS011;38162;45.926;13.608;2023-11-19T08:06:58;11.17;;;6.60;;
52188;SDS011;38162;45.926;13.608;2023-11-19T08:09:24;8.60;;;6.00;;
52188;SDS011;38162;45.926;13.608;2023-11-19T08:11:50;7.67;;;4.87;;
52188;SDS011;38162;45.926;13.608;2023-11-19T08:14:16;6.63;;;4.30;;
52188;SDS011;38162;45.926;13.608;2023-11-19T08:16:41;9.00;;;4.83;;
52188;SDS011;38162;45.926;13.608;2023-11-19T08:19:07;7.17;;;4.10;;
52188;SDS011;38162;45.926;13.608;2023-11-19T08:21:33;7.00;;;3.53;;
52188;SDS011;38162;45.926;13.608;2023-11-19T08:23:59;6.00;;;3.50;;
52188;SDS011;38162;45.926;13.608;2023-11-19T08:26:25;5.80;;;3.80;;
52188;SDS011;38162;45.926;13.608;2023-11-19T08:28:50;16.03;;;9.40;;
52188;SDS011;38162;45.926;13.608;2023-11-19T08:31:17;17.37;;;9.50;;
52188;SDS011;38162;45.926;13.608;2023-11-19T08:33:42;15.47;;;10.33;;
52188;SDS011;38162;45.926;13.608;2023-11-19T08:36:08;18.03;;;10.10;;
52188;SDS011;38162;45.926;13.608;2023-11-19T08:38:40;14.67;;;9.83;;
52188;SDS011;38162;45.926;13.608;2023-11-19T08:41:05;18.10;;;11.83;;
52188;SDS011;38162;45.926;13.608;2023-11-19T08:43:31;24.27;;;14.47;;
52188;SDS011;38162;45.926;13.608;2023-11-19T08:45:57;28.97;;;16.17;;
52188;SDS011;38162;45.926;13.608;2023-11-19T08:48:23;18.73;;;12.07;;
52188;SDS011;38162;45.926;13.608;2023-11-19T08:50:48;17.90;;;8.63;;
52188;SDS011;38162;45.926;13.608;2023-11-19T08:53:15;12.23;;;7.90;;
52188;SDS011;38162;45.926;13.608;2023-11-19T08:55:40;13.67;;;7.00;;
52188;SDS011;38162;45.926;13.608;2023-11-19T08:58:06;10.83;;;6.83;;
52188;SDS011;38162;45.926;13.608;2023-11-19T09:00:32;9.83;;;5.50;;
52188;SDS011;38162;45.926;13.608;2023-11-19T09:02:57;8.97;;;5.40;;
52188;SDS011;38162;45.926;13.608;2023-11-19T09:05:24;8.50;;;5.07;;
52188;SDS011;38162;45.926;13.608;2023-11-19T09:07:50;7.63;;;5.03;;
52188;SDS011;38162;45.926;13.608;2023-11-19T09:10:15;15.77;;;5.77;;
52188;SDS011;38162;45.926;13.608;2023-11-19T09:12:41;6.97;;;4.80;;
52188;SDS011;38162;45.926;13.608;2023-11-19T09:15:07;8.83;;;5.13;;
52188;SDS011;38162;45.926;13.608;2023-11-19T09:17:35;7.60;;;4.60;;
52188;SDS011;38162;45.926;13.608;2023-11-19T09:20:01;8.90;;;5.43;;
52188;SDS011;38162;45.926;13.608;2023-11-19T09:22:27;7.83;;;4.53;;
52188;SDS011;38162;45.926;13.608;2023-11-19T09:24:53;7.27;;;4.50;;
52188;SDS011;38162;45.926;13.608;2023-11-19T09:27:19;10.50;;;4.83;;
52188;SDS011;38162;45.926;13.608;2023-11-19T09:29:45;10.23;;;5.40;;
52188;SDS011;38162;45.926;13.608;2023-11-19T09:32:13;10.67;;;6.00;;
52188;SDS011;38162;45.926;13.608;2023-11-19T09:34:39;9.90;;;5.87;;
52188;SDS011;38162;45.926;13.608;2023-11-19T09:37:05;8.33;;;6.13;;
52188;SDS011;38162;45.926;13.608;2023-11-19T09:39:30;9.47;;;6.77;;
52188;SDS011;38162;45.926;13.608;2023-11-19T09:41:56;9.20;;;5.93;;
52188;SDS011;38162;45.926;13.608;2023-11-19T09:44:22;10.20;;;5.13;;
52188;SDS011;38162;45.926;13.608;2023-11-19T09:46:49;8.20;;;4.97;;
52188;SDS011;38162;45.926;13.608;2023-11-19T09:49:15;12.87;;;6.17;;
52188;SDS011;38162;45.926;13.608;2023-11-19T09:51:46;9.23;;;5.80;;
52188;SDS011;38162;45.926;13.608;2023-11-19T09:54:11;8.67;;;5.47;;
52188;SDS011;38162;45.926;13.608;2023-11-19T09:56:38;7.93;;;5.10;;
52188;SDS011;38162;45.926;13.608;2023-11-19T09:59:05;14.27;;;5.20;;
52188;SDS011;38162;45.926;13.608;2023-11-19T10:01:31;7.43;;;4.70;;
52188;SDS011;38162;45.926;13.608;2023-11-19T10:03:57;6.17;;;3.83;;
52188;SDS011;38162;45.926;13.608;2023-11-19T10:06:24;7.03;;;3.90;;
52188;SDS011;38162;45.926;13.608;2023-11-19T10:08:51;8.83;;;3.83;;
52188;SDS011;38162;45.926;13.608;2023-11-19T10:11:18;6.67;;;3.77;;
52188;SDS011;38162;45.926;13.608;2023-11-19T10:13:43;9.40;;;4.27;;
52188;SDS011;38162;45.926;13.608;2023-11-19T10:16:12;7.10;;;3.90;;
52188;SDS011;38162;45.926;13.608;2023-11-19T10:18:45;8.60;;;3.83;;
52188;SDS011;38162;45.926;13.608;2023-11-19T10:21:12;6.37;;;3.90;;
52188;SDS011;38162;45.926;13.608;2023-11-19T10:23:48;7.83;;;3.97;;
52188;SDS011;38162;45.926;13.608;2023-11-19T10:26:16;9.73;;;3.90;;
52188;SDS011;38162;45.926;13.608;2023-11-19T10:28:42;8.57;;;4.00;;
52188;SDS011;38162;45.926;13.608;2023-11-19T10:31:11;6.53;;;4.17;;
52188;SDS011;38162;45.926;13.608;2023-11-19T10:33:38;8.03;;;4.13;;
52188;SDS011;38162;45.926;13.608;2023-11-19T10:36:03;8.33;;;4.27;;
52188;SDS011;38162;45.926;13.608;2023-11-19T10:38:29;13.03;;;4.40;;
52188;SDS011;38162;45.926;13.608;2023-11-19T10:40:55;8.50;;;4.97;;
52188;SDS011;38162;45.926;13.608;2023-11-19T10:43:21;7.17;;;5.07;;
52188;SDS011;38162;45.926;13.608;2023-11-19T10:45:48;10.27;;;5.23;;
52188;SDS011;38162;45.926;13.608;2023-11-19T10:48:14;9.30;;;5.33;;
52188;SDS011;38162;45.926;13.608;2023-11-19T10:50:41;8.27;;;4.80;;
52188;SDS011;38162;45.926;13.608;2023-11-19T10:53:09;8.63;;;4.83;;
52188;SDS011;38162;45.926;13.608;2023-11-19T10:55:38;12.63;;;4.57;;
52188;SDS011;38162;45.926;13.608;2023-11-19T10:58:08;6.47;;;4.73;;
52188;SDS011;38162;45.926;13.608;2023-11-19T11:00:44;9.03;;;5.17;;
52188;SDS011;38162;45.926;13.608;2023-11-19T11:05:50;7.03;;;4.93;;
52188;SDS011;38162;45.926;13.608;2023-11-19T11:08:17;11.27;;;4.90;;
52188;SDS011;38162;45.926;13.608;2023-11-19T11:10:45;11.23;;;5.33;;
52188;SDS011;38162;45.926;13.608;2023-11-19T11:15:43;6.53;;;4.43;;
52188;SDS011;38162;45.926;13.608;2023-11-19T11:18:11;7.40;;;5.07;;
52188;SDS011;38162;45.926;13.608;2023-11-19T11:20:38;14.27;;;5.33;;
52188;SDS011;38162;45.926;13.608;2023-11-19T11:26:18;11.00;;;5.53;;
52188;SDS011;38162;45.926;13.608;2023-11-19T11:29:02;10.83;;;5.97;;
52188;SDS011;38162;45.926;13.608;2023-11-19T11:32:02;9.13;;;5.25;;
52188;SDS011;38162;45.926;13.608;2023-11-19T11:34:44;7.97;;;5.10;;
52188;SDS011;38162;45.926;13.608;2023-11-19T11:37:32;10.85;;;5.95;;
52188;SDS011;38162;45.926;13.608;2023-11-19T11:40:15;7.65;;;5.57;;
52188;SDS011;38162;45.926;13.608;2023-11-19T11:42:41;13.10;;;6.07;;
52188;SDS011;38162;45.926;13.608;2023-11-19T11:45:07;9.77;;;6.13;;
52188;SDS011;38162;45.926;13.608;2023-11-19T11:50:13;13.57;;;6.50;;
52188;SDS011;38162;45.926;13.608;2023-11-19T11:58:17;11.52;;;7.00;;
52188;SDS011;38162;45.926;13.608;2023-11-19T12:00:43;9.38;;;6.82;;
52188;SDS011;38162;45.926;13.608;2023-11-19T12:03:11;13.32;;;7.22;;
52188;SDS011;38162;45.926;13.608;2023-11-19T12:05:43;10.48;;;6.93;;
52188;SDS011;38162;45.926;13.608;2023-11-19T12:08:10;9.85;;;6.80;;
52188;SDS011;38162;45.926;13.608;2023-11-19T12:10:52;14.15;;;6.43;;
52188;SDS011;38162;45.926;13.608;2023-11-19T12:13:20;10.40;;;5.85;;
52188;SDS011;38162;45.926;13.608;2023-11-19T12:20:54;7.95;;;4.35;;
52188;SDS011;38162;45.926;13.608;2023-11-19T12:23:21;8.85;;;4.28;;
52188;SDS011;38162;45.926;13.608;2023-11-19T12:25:47;9.55;;;4.68;;
52188;SDS011;38162;45.926;13.608;2023-11-19T12:28:14;10.27;;;4.85;;
52188;SDS011;38162;45.926;13.608;2023-11-19T12:30:43;7.50;;;4.75;;
52188;SDS011;38162;45.926;13.608;2023-11-19T12:33:10;6.75;;;4.45;;
52188;SDS011;38162;45.926;13.608;2023-11-19T12:35:44;6.43;;;4.15;;
52188;SDS011;38162;45.926;13.608;2023-11-19T12:41:02;10.32;;;4.22;;
52188;SDS011;38162;45.926;13.608;2023-11-19T12:43:29;9.98;;;4.00;;
52188;SDS011;38162;45.926;13.608;2023-11-19T12:45:54;7.47;;;5.22;;
52188;SDS011;38162;45.926;13.608;2023-11-19T12:48:20;10.32;;;5.43;;
52188;SDS011;38162;45.926;13.608;2023-11-19T12:50:58;9.77;;;5.20;;
52188;SDS011;38162;45.926;13.608;2023-11-19T12:53:27;12.25;;;4.93;;
52188;SDS011;38162;45.926;13.608;2023-11-19T12:55:54;8.70;;;5.15;;
52188;SDS011;38162;45.926;13.608;2023-11-19T12:58:33;7.95;;;4.82;;
52188;SDS011;38162;45.926;13.608;2023-11-19T13:01:04;9.07;;;5.70;;
52188;SDS011;38162;45.926;13.608;2023-11-19T13:03:32;10.68;;;7.05;;
52188;SDS011;38162;45.926;13.608;2023-11-19T13:08:29;9.32;;;5.78;;
52188;SDS011;38162;45.926;13.608;2023-11-19T13:11:05;10.38;;;5.10;;
52188;SDS011;38162;45.926;13.608;2023-11-19T13:13:32;9.70;;;5.20;;
52188;SDS011;38162;45.926;13.608;2023-11-19T13:16:15;7.00;;;4.07;;
52188;SDS011;38162;45.926;13.608;2023-11-19T13:18:40;9.18;;;4.28;;
52188;SDS011;38162;45.926;13.608;2023-11-19T13:21:06;7.50;;;4.75;;
52188;SDS011;38162;45.926;13.608;2023-11-19T13:23:32;6.20;;;4.53;;
52188;SDS011;38162;45.926;13.608;2023-11-19T13:25:58;6.95;;;5.60;;
52188;SDS011;38162;45.926;13.608;2023-11-19T13:28:23;7.53;;;6.00;;
52188;SDS011;38162;45.926;13.608;2023-11-19T13:30:51;9.50;;;6.85;;
52188;SDS011;38162;45.926;13.608;2023-11-19T13:33:18;9.10;;;6.82;;
52188;SDS011;38162;45.926;13.608;2023-11-19T13:35:44;9.25;;;6.47;;
52188;SDS011;38162;45.926;13.608;2023-11-19T13:38:10;9.57;;;6.70;;
52188;SDS011;38162;45.926;13.608;2023-11-19T13:40:35;8.13;;;6.28;;
52188;SDS011;38162;45.926;13.608;2023-11-19T13:43:01;13.40;;;7.88;;
52188;SDS011;38162;45.926;13.608;2023-11-19T13:45:27;8.98;;;7.05;;
52188;SDS011;38162;45.926;13.608;2023-11-19T13:47:52;10.13;;;7.80;;
52188;SDS011;38162;45.926;13.608;2023-11-19T13:50:18;8.57;;;6.63;;
52188;SDS011;38162;45.926;13.608;2023-11-19T13:52:45;8.90;;;6.93;;
52188;SDS011;38162;45.926;13.608;2023-11-19T13:55:11;8.07;;;6.38;;
52188;SDS011;38162;45.926;13.608;2023-11-19T13:57:38;9.13;;;6.65;;
52188;SDS011;38162;45.926;13.608;2023-11-19T14:00:08;7.35;;;5.90;;
52188;SDS011;38162;45.926;13.608;2023-11-19T14:02:39;8.52;;;6.65;;
52188;SDS011;38162;45.926;13.608;2023-11-19T14:05:05;8.95;;;6.47;;
52188;SDS011;38162;45.926;13.608;2023-11-19T14:07:32;9.13;;;5.72;;
52188;SDS011;38162;45.926;13.608;2023-11-19T14:09:58;7.18;;;6.13;;
52188;SDS011;38162;45.926;13.608;2023-11-19T14:12:23;8.75;;;6.15;;
52188;SDS011;38162;45.926;13.608;2023-11-19T14:14:49;8.60;;;6.03;;
52188;SDS011;38162;45.926;13.608;2023-11-19T14:17:15;12.40;;;7.30;;
52188;SDS011;38162;45.926;13.608;2023-11-19T14:19:41;9.38;;;6.85;;
52188;SDS011;38162;45.926;13.608;2023-11-19T14:22:07;10.15;;;7.25;;
52188;SDS011;38162;45.926;13.608;2023-11-19T14:24:36;10.05;;;6.50;;
52188;SDS011;38162;45.926;13.608;2023-11-19T14:27:02;11.48;;;6.70;;
52188;SDS011;38162;45.926;13.608;2023-11-19T14:29:28;11.70;;;6.70;;
52188;SDS011;38162;45.926;13.608;2023-11-19T14:31:57;10.38;;;6.78;;
52188;SDS011;38162;45.926;13.608;2023-11-19T14:34:24;9.55;;;6.72;;
52188;SDS011;38162;45.926;13.608;2023-11-19T14:36:51;14.68;;;11.48;;
52188;SDS011;38162;45.926;13.608;2023-11-19T14:39:18;26.75;;;20.25;;
52188;SDS011;38162;45.926;13.608;2023-11-19T14:41:44;20.17;;;14.43;;
52188;SDS011;38162;45.926;13.608;2023-11-19T14:44:10;14.30;;;10.60;;
52188;SDS011;38162;45.926;13.608;2023-11-19T14:46:36;11.20;;;8.82;;
52188;SDS011;38162;45.926;13.608;2023-11-19T14:49:02;11.35;;;8.10;;
52188;SDS011;38162;45.926;13.608;2023-11-19T14:51:29;10.48;;;8.20;;
52188;SDS011;38162;45.926;13.608;2023-11-19T14:53:55;10.38;;;7.82;;
52188;SDS011;38162;45.926;13.608;2023-11-19T14:56:21;14.93;;;9.07;;
52188;SDS011;38162;45.926;13.608;2023-11-19T14:58:47;11.77;;;9.00;;